Time;durP1;ratioP1;P1;durP2;ratioP2;P2;SDS_P1;SDS_P2;PMS_P1;PMS_P2;Temp;Humidity;BMP_temperature;BMP_pressure;BME280_temperature;BME280_humidity;BME280_pressure;Samples;Min_cycle;Max_cycle;Signal;HPM_P1;HPM_P2
2022/01/29 00:00:28;;;;;;;41.65;18.63;;;7.00;99.90;;;;;;5020854;28;235256;-71
2022/01/29 00:02:54;;;;;;;41.53;18.33;;;6.90;99.90;;;;;;4989888;28;20057;-71
2022/01/29 00:05:21;;;;;;;42.45;19.08;;;6.90;99.90;;;;;;4987340;28;207041;-69
2022/01/29 00:07:47;;;;;;;42.72;18.05;;;6.90;99.90;;;;;;4985131;28;20053;-69
2022/01/29 00:10:14;;;;;;;33.33;17.77;;;6.90;99.90;;;;;;5009709;28;133240;-69
2022/01/29 00:12:41;;;;;;;37.13;19.13;;;6.90;99.90;;;;;;4992490;28;21295;-70
2022/01/29 00:15:08;;;;;;;34.88;18.77;;;6.90;99.90;;;;;;5010262;28;168085;-71
2022/01/29 00:17:34;;;;;;;38.47;19.90;;;6.90;99.90;;;;;;5013610;28;20041;-70
2022/01/29 00:20:00;;;;;;;39.25;17.63;;;6.90;99.90;;;;;;4982091;28;168945;-71
2022/01/29 00:22:27;;;;;;;41.67;19.77;;;6.90;99.90;;;;;;5001822;28;20053;-70
2022/01/29 00:24:53;;;;;;;40.33;19.33;;;6.90;99.90;;;;;;4965608;28;167618;-70
2022/01/29 00:27:21;;;;;;;44.67;20.40;;;6.90;99.90;;;;;;5008496;28;20531;-73
2022/01/29 00:29:48;;;;;;;40.03;20.67;;;6.90;99.90;;;;;;4973400;28;236741;-69
2022/01/29 00:32:14;;;;;;;45.15;22.73;;;6.90;99.90;;;;;;5011350;28;20068;-70
2022/01/29 00:34:41;;;;;;;44.97;21.85;;;6.80;99.90;;;;;;4986504;28;143765;-71
2022/01/29 00:37:08;;;;;;;52.28;24.05;;;6.80;99.90;;;;;;5010727;28;20064;-71
2022/01/29 00:39:34;;;;;;;50.25;25.10;;;6.80;99.90;;;;;;4972584;28;29350;-71
2022/01/29 00:42:00;;;;;;;41.88;22.63;;;6.80;99.90;;;;;;5015486;28;20054;-71
2022/01/29 00:44:27;;;;;;;48.15;26.00;;;6.80;99.90;;;;;;4973632;28;232184;-71
2022/01/29 00:46:53;;;;;;;48.78;25.00;;;6.70;99.90;;;;;;5026942;28;20045;-71
2022/01/29 00:49:19;;;;;;;44.13;23.27;;;6.70;99.90;;;;;;4992112;28;61932;-71
2022/01/29 00:51:45;;;;;;;40.03;23.08;;;6.70;99.90;;;;;;5009594;28;20077;-71
2022/01/29 00:54:11;;;;;;;46.20;22.67;;;6.70;99.90;;;;;;4973144;28;186594;-71
2022/01/29 00:56:39;;;;;;;45.63;23.85;;;6.70;99.90;;;;;;5017442;28;20410;-71
2022/01/29 00:59:05;;;;;;;50.22;24.63;;;6.70;99.90;;;;;;4959705;28;109833;-70
2022/01/29 01:01:31;;;;;;;47.17;25.05;;;6.70;99.90;;;;;;5017388;28;20490;-71
2022/01/29 01:03:58;;;;;;;48.45;24.13;;;6.70;99.90;;;;;;4964966;28;186071;-70
2022/01/29 01:06:24;;;;;;;49.08;24.20;;;6.80;99.90;;;;;;5020444;28;20057;-70
2022/01/29 01:08:50;;;;;;;47.83;22.65;;;6.70;99.90;;;;;;4976638;28;85271;-70
2022/01/29 01:11:16;;;;;;;48.97;23.83;;;6.80;99.90;;;;;;5015519;28;20057;-71
2022/01/29 01:13:43;;;;;;;45.15;22.98;;;6.80;99.90;;;;;;4982896;28;157278;-70
2022/01/29 01:16:09;;;;;;;49.33;25.05;;;6.80;99.90;;;;;;5012405;28;20065;-70
2022/01/29 01:18:35;;;;;;;44.30;22.88;;;6.80;99.90;;;;;;4989619;28;20045;-70
2022/01/29 01:21:01;;;;;;;47.17;24.77;;;6.80;99.90;;;;;;5009033;28;49297;-71
2022/01/29 01:23:27;;;;;;;43.75;21.58;;;6.80;99.90;;;;;;4988860;28;20042;-70
2022/01/29 01:25:53;;;;;;;44.30;23.10;;;6.90;99.90;;;;;;4982084;28;117736;-71
2022/01/29 01:28:20;;;;;;;37.35;20.45;;;6.90;99.90;;;;;;4992332;28;20092;-70
2022/01/29 01:30:46;;;;;;;43.03;20.55;;;6.90;99.90;;;;;;5008514;28;118752;-70
2022/01/29 01:33:12;;;;;;;42.53;19.35;;;7.00;99.90;;;;;;4983039;28;20049;-70
2022/01/29 01:35:46;;;;;;;42.65;20.88;;;7.10;99.90;;;;;;5008910;28;209682;-70
2022/01/29 01:41:03;;;;;;;41.80;20.98;;;7.10;99.90;;;;;;4935473;28;238245;-70
2022/01/29 01:43:29;;;;;;;46.63;22.25;;;7.20;99.90;;;;;;4918201;28;20393;-71
2022/01/29 01:45:55;;;;;;;41.10;22.17;;;7.20;99.90;;;;;;4932034;28;88429;-71
2022/01/29 01:48:22;;;;;;;47.30;22.77;;;7.20;99.90;;;;;;4933631;28;20050;-72
2022/01/29 01:50:49;;;;;;;47.13;23.95;;;7.20;99.90;;;;;;4931670;28;173070;-71
2022/01/29 01:53:15;;;;;;;52.53;23.23;;;7.30;99.90;;;;;;4933526;28;20540;-71
2022/01/29 01:55:41;;;;;;;48.70;22.85;;;7.30;99.90;;;;;;4934468;28;42211;-70
2022/01/29 01:58:07;;;;;;;45.28;23.27;;;7.30;99.90;;;;;;4918858;28;20098;-71
2022/01/29 02:00:34;;;;;;;56.53;23.67;;;7.30;99.90;;;;;;4921972;28;174145;-71
2022/01/29 02:03:00;;;;;;;51.03;23.17;;;7.30;99.90;;;;;;4934643;28;20053;-71
2022/01/29 02:05:26;;;;;;;47.03;21.90;;;7.40;99.90;;;;;;4910789;28;125238;-71
2022/01/29 02:07:53;;;;;;;55.20;22.63;;;7.40;99.90;;;;;;4917773;28;20133;-71
2022/01/29 02:10:19;;;;;;;51.50;23.35;;;7.40;99.90;;;;;;4937576;28;109903;-72
2022/01/29 02:12:57;;;;;;;44.30;22.83;;;7.40;99.90;;;;;;4932927;28;20059;-72
2022/01/29 02:15:25;;;;;;;48.22;20.27;;;7.40;99.90;;;;;;4923447;28;86543;-71
2022/01/29 02:17:52;;;;;;;49.95;22.30;;;7.50;99.90;;;;;;4957187;28;20884;-71
2022/01/29 02:20:21;;;;;;;53.78;23.38;;;7.50;99.90;;;;;;5011493;28;43451;-71
2022/01/29 02:22:47;;;;;;;45.22;21.95;;;7.50;99.90;;;;;;4989891;28;20058;-72
2022/01/29 02:25:31;;;;;;;52.15;23.23;;;7.50;99.90;;;;;;5025610;28;170256;-72
2022/01/29 02:28:04;;;;;;;60.00;24.17;;;7.50;99.90;;;;;;4990137;28;20079;-72
2022/01/29 02:30:33;;;;;;;53.83;22.05;;;7.50;99.90;;;;;;5005395;28;138705;-71
2022/01/29 02:33:00;;;;;;;43.97;20.98;;;7.50;99.90;;;;;;5014017;28;20064;-71
2022/01/29 02:35:27;;;;;;;52.50;24.08;;;7.50;99.90;;;;;;5012492;28;66732;-71
2022/01/29 02:37:55;;;;;;;51.67;22.73;;;7.50;99.90;;;;;;4995968;28;20042;-71
2022/01/29 02:40:22;;;;;;;43.30;19.33;;;7.50;99.90;;;;;;5007789;28;132458;-71
2022/01/29 02:42:54;;;;;;;53.65;23.08;;;7.60;99.90;;;;;;5003241;28;20077;-70
2022/01/29 02:45:20;;;;;;;63.15;25.27;;;7.60;99.90;;;;;;4981398;28;94297;-71
2022/01/29 02:47:47;;;;;;;59.17;23.60;;;7.60;99.90;;;;;;4989207;28;20053;-71
2022/01/29 02:50:13;;;;;;;52.00;22.80;;;7.60;99.90;;;;;;5012034;28;86803;-71
2022/01/29 02:52:39;;;;;;;50.72;21.65;;;7.60;99.90;;;;;;4986759;28;20053;-71
2022/01/29 02:55:06;;;;;;;47.67;24.23;;;7.60;99.90;;;;;;5013743;28;43381;-71
2022/01/29 02:57:32;;;;;;;50.83;21.77;;;7.60;99.90;;;;;;5017649;28;20057;-72
2022/01/29 03:00:00;;;;;;;49.60;23.17;;;7.70;99.90;;;;;;4978709;28;216805;-71
2022/01/29 03:02:29;;;;;;;51.53;23.98;;;7.70;99.90;;;;;;5019712;28;20069;-71
2022/01/29 03:04:57;;;;;;;48.42;21.23;;;7.70;99.90;;;;;;4980891;28;106893;-72
2022/01/29 03:07:23;;;;;;;47.20;22.17;;;7.70;99.90;;;;;;5025421;28;20395;-72
2022/01/29 03:09:49;;;;;;;44.85;20.77;;;7.70;99.90;;;;;;4978832;28;20615;-72
2022/01/29 03:12:15;;;;;;;41.97;20.70;;;7.70;99.90;;;;;;5012053;28;20427;-71
2022/01/29 03:14:41;;;;;;;50.60;22.55;;;7.70;99.90;;;;;;4981011;28;148403;-72
2022/01/29 03:17:08;;;;;;;51.30;21.92;;;7.70;99.90;;;;;;5012941;28;20049;-72
2022/01/29 03:19:34;;;;;;;54.58;22.42;;;7.70;99.90;;;;;;4982928;28;20053;-72
2022/01/29 03:22:00;;;;;;;56.53;22.85;;;7.70;99.90;;;;;;5019299;28;20591;-71
2022/01/29 03:24:26;;;;;;;51.53;22.00;;;7.70;99.90;;;;;;4978479;28;176816;-72
2022/01/29 03:26:52;;;;;;;47.60;20.77;;;7.80;99.90;;;;;;5023768;28;20057;-72
2022/01/29 03:29:18;;;;;;;47.30;22.25;;;7.80;99.90;;;;;;4973744;28;113784;-72
2022/01/29 03:31:44;;;;;;;46.65;21.63;;;7.80;99.90;;;;;;5030002;28;20068;-71
2022/01/29 03:34:10;;;;;;;50.53;21.48;;;7.80;99.90;;;;;;4976684;28;248652;-72
2022/01/29 03:36:36;;;;;;;47.55;20.67;;;7.80;99.90;;;;;;5005325;28;20050;-72
2022/01/29 03:39:03;;;;;;;42.33;20.85;;;7.80;99.90;;;;;;4974656;28;242986;-72
2022/01/29 03:41:30;;;;;;;50.08;21.80;;;7.80;99.90;;;;;;5015101;28;20058;-72
2022/01/29 03:44:01;;;;;;;50.38;21.05;;;7.80;99.90;;;;;;4986720;28;82639;-71
2022/01/29 03:46:28;;;;;;;50.00;20.90;;;7.90;99.90;;;;;;5012397;23;20053;-72
2022/01/29 03:48:54;;;;;;;50.25;19.63;;;7.90;99.90;;;;;;4943476;28;83492;-70
2022/01/29 03:51:20;;;;;;;43.55;20.42;;;7.90;99.90;;;;;;4993288;28;20121;-71
2022/01/29 03:53:47;;;;;;;41.88;20.50;;;7.90;99.90;;;;;;4980538;28;107079;-70
2022/01/29 03:56:14;;;;;;;43.60;20.88;;;7.90;99.90;;;;;;5011485;28;20073;-71
2022/01/29 03:58:40;;;;;;;45.33;21.33;;;7.90;99.90;;;;;;4980754;28;148069;-69
2022/01/29 04:01:06;;;;;;;46.03;20.98;;;7.90;99.90;;;;;;5001846;28;20053;-71
2022/01/29 04:03:32;;;;;;;43.47;20.92;;;7.90;99.90;;;;;;4976417;28;20048;-70
2022/01/29 04:05:58;;;;;;;41.28;19.77;;;8.00;99.90;;;;;;4982341;28;145221;-71
2022/01/29 04:08:25;;;;;;;41.08;20.90;;;7.90;99.90;;;;;;4971664;28;20708;-71
2022/01/29 04:10:52;;;;;;;48.83;20.85;;;8.00;99.90;;;;;;4992521;28;212766;-71
2022/01/29 04:13:24;;;;;;;41.97;22.15;;;8.00;99.90;;;;;;4992785;28;20045;-70
2022/01/29 04:15:50;;;;;;;43.10;20.05;;;8.00;99.90;;;;;;5003823;28;189582;-71
2022/01/29 04:18:16;;;;;;;40.70;19.85;;;8.00;99.90;;;;;;4988042;28;20048;-71
2022/01/29 04:20:44;;;;;;;44.15;18.77;;;8.00;99.90;;;;;;4974280;28;177254;-71
2022/01/29 04:23:10;;;;;;;38.63;20.02;;;8.00;99.90;;;;;;4977192;28;20038;-71
2022/01/29 04:25:36;;;;;;;40.08;18.48;;;8.00;99.90;;;;;;4981825;28;231500;-71
2022/01/29 04:28:04;;;;;;;39.67;19.75;;;8.00;99.90;;;;;;4970376;28;20486;-71
2022/01/29 04:30:32;;;;;;;37.85;18.98;;;8.10;99.90;;;;;;4975004;28;97843;-72
2022/01/29 04:33:03;;;;;;;40.17;18.75;;;8.10;99.90;;;;;;5003709;28;20057;-71
2022/01/29 04:35:30;;;;;;;37.95;19.08;;;8.10;99.90;;;;;;4999846;28;164825;-71
2022/01/29 04:37:57;;;;;;;40.05;20.30;;;8.10;99.90;;;;;;4982399;28;20054;-72
2022/01/29 04:40:23;;;;;;;41.65;18.92;;;8.10;99.90;;;;;;4988890;28;217158;-71
2022/01/29 04:42:49;;;;;;;43.50;17.88;;;8.10;99.90;;;;;;4967186;28;20046;-70
2022/01/29 04:45:15;;;;;;;37.83;18.77;;;8.10;99.90;;;;;;5010860;28;169480;-71
2022/01/29 04:47:42;;;;;;;34.78;17.92;;;8.20;99.90;;;;;;4983734;28;20262;-71
2022/01/29 04:50:08;;;;;;;34.88;18.77;;;8.10;99.90;;;;;;5005992;28;217364;-71
2022/01/29 04:52:34;;;;;;;35.67;17.10;;;8.10;99.90;;;;;;5024914;28;20050;-71
2022/01/29 04:55:00;;;;;;;34.42;19.02;;;8.20;99.90;;;;;;4988160;28;90433;-71
2022/01/29 04:57:26;;;;;;;35.38;17.70;;;8.20;99.90;;;;;;5010988;28;20426;-71
2022/01/29 04:59:52;;;;;;;35.22;18.48;;;8.30;99.90;;;;;;4983447;28;37916;-71
2022/01/29 05:02:19;;;;;;;37.30;17.70;;;8.20;99.90;;;;;;5010618;28;20057;-72
2022/01/29 05:04:45;;;;;;;39.95;17.98;;;8.30;99.90;;;;;;4966284;28;232076;-71
2022/01/29 05:07:11;;;;;;;40.88;18.27;;;8.30;99.90;;;;;;5009578;28;20072;-71
2022/01/29 05:09:37;;;;;;;34.97;18.17;;;8.20;99.90;;;;;;4959900;28;192548;-71
2022/01/29 05:12:03;;;;;;;33.05;17.23;;;8.30;99.90;;;;;;5015554;28;20045;-71
2022/01/29 05:28:11;;;;;;;31.70;16.65;;;8.30;99.90;;;;;;4965693;28;20050;-70
2022/01/29 05:30:37;;;;;;;34.50;16.70;;;8.30;99.90;;;;;;4964315;28;100617;-71
2022/01/29 05:33:03;;;;;;;31.75;17.25;;;8.30;99.90;;;;;;4960048;28;20048;-71
2022/01/29 05:35:29;;;;;;;34.25;16.90;;;8.30;99.90;;;;;;4971867;28;243247;-71
2022/01/29 05:37:56;;;;;;;33.60;15.50;;;8.30;99.90;;;;;;4946045;28;20050;-71
2022/01/29 05:40:22;;;;;;;32.05;16.63;;;8.40;99.90;;;;;;4974721;28;109548;-71
2022/01/29 05:42:48;;;;;;;32.10;16.30;;;8.40;99.90;;;;;;4961202;28;20041;-70
2022/01/29 05:45:14;;;;;;;30.10;15.88;;;8.50;99.90;;;;;;4956584;28;214467;-71
2022/01/29 05:47:40;;;;;;;32.08;16.40;;;8.50;99.90;;;;;;4956366;28;20046;-71
2022/01/29 05:50:07;;;;;;;29.75;15.27;;;8.50;99.90;;;;;;4978217;28;183081;-71
2022/01/29 05:52:33;;;;;;;29.42;15.13;;;8.50;99.90;;;;;;4993841;28;20050;-72
2022/01/29 05:54:59;;;;;;;28.30;15.80;;;8.50;99.90;;;;;;4953561;28;138007;-71
2022/01/29 05:57:25;;;;;;;28.90;15.20;;;8.50;99.90;;;;;;5040131;28;20054;-72
2022/01/29 05:59:51;;;;;;;31.17;15.60;;;8.60;99.90;;;;;;4992531;28;135540;-72
2022/01/29 06:02:17;;;;;;;32.35;15.05;;;8.60;99.90;;;;;;5046666;28;20056;-72
2022/01/29 06:04:43;;;;;;;30.30;15.18;;;8.60;99.90;;;;;;4963736;28;234824;-72
2022/01/29 06:07:09;;;;;;;28.45;14.52;;;8.60;99.90;;;;;;5040439;28;20076;-71
2022/01/29 06:09:35;;;;;;;26.70;14.40;;;8.60;99.90;;;;;;4985506;28;186271;-71
2022/01/29 06:12:02;;;;;;;25.38;14.75;;;8.60;99.90;;;;;;5029241;28;20060;-71
2022/01/29 06:14:28;;;;;;;27.30;14.95;;;8.70;99.90;;;;;;4994506;28;168514;-71
2022/01/29 06:16:54;;;;;;;30.35;14.15;;;8.60;99.90;;;;;;5035177;28;20531;-72
2022/01/29 06:19:20;;;;;;;30.77;13.90;;;8.60;99.90;;;;;;4994755;28;47295;-71
2022/01/29 06:21:46;;;;;;;31.23;14.82;;;8.70;99.90;;;;;;5039586;28;20129;-71
2022/01/29 06:24:12;;;;;;;28.90;13.82;;;8.70;99.90;;;;;;4985551;28;143548;-71
2022/01/29 06:26:38;;;;;;;28.33;13.32;;;8.70;99.90;;;;;;5047212;28;20045;-72
2022/01/29 06:29:04;;;;;;;25.95;13.25;;;8.70;99.90;;;;;;4989025;28;105035;-71
2022/01/29 06:31:30;;;;;;;27.67;13.55;;;8.70;99.90;;;;;;5035932;28;20056;-72
2022/01/29 06:33:57;;;;;;;26.65;13.60;;;8.70;99.90;;;;;;4980696;28;230831;-71
2022/01/29 06:36:23;;;;;;;28.40;13.52;;;8.70;99.90;;;;;;5046008;28;20067;-72
2022/01/29 06:38:49;;;;;;;26.60;13.30;;;8.70;99.90;;;;;;4992606;28;81840;-71
2022/01/29 06:41:15;;;;;;;27.50;13.70;;;8.70;99.90;;;;;;5031100;28;20462;-71
2022/01/29 06:43:41;;;;;;;25.75;13.25;;;8.80;99.90;;;;;;4989320;28;55095;-71
2022/01/29 06:46:07;;;;;;;27.15;12.52;;;8.80;99.90;;;;;;5045457;28;20057;-72
2022/01/29 06:48:33;;;;;;;28.42;12.77;;;8.80;99.90;;;;;;5000911;28;20057;-71
2022/01/29 06:50:59;;;;;;;25.83;12.82;;;8.80;99.90;;;;;;5013446;28;183466;-71
2022/01/29 06:53:25;;;;;;;25.75;12.48;;;8.80;99.90;;;;;;5016899;28;20044;-71
2022/01/29 06:55:52;;;;;;;26.70;12.90;;;8.80;99.90;;;;;;5020842;28;180465;-72
2022/01/29 06:58:18;;;;;;;23.80;12.65;;;8.90;99.90;;;;;;5006314;28;20041;-71
2022/01/29 07:00:44;;;;;;;20.63;11.70;;;8.80;99.90;;;;;;5014973;28;27947;-72
2022/01/29 07:03:10;;;;;;;31.13;11.93;;;8.90;99.90;;;;;;5012925;28;20033;-71
2022/01/29 07:05:36;;;;;;;25.75;12.38;;;8.90;99.90;;;;;;4987210;28;140458;-72
2022/01/29 07:08:04;;;;;;;26.05;11.50;;;8.90;99.90;;;;;;5006309;28;20045;-71
2022/01/29 07:10:30;;;;;;;26.27;12.15;;;8.80;99.90;;;;;;5030651;28;116768;-71
2022/01/29 07:12:56;;;;;;;22.15;11.80;;;8.80;99.90;;;;;;5004859;28;20045;-71
2022/01/29 07:15:22;;;;;;;25.33;11.68;;;8.90;99.90;;;;;;5011283;28;199673;-72
2022/01/29 07:17:49;;;;;;;22.13;11.57;;;8.90;99.90;;;;;;5006219;28;20054;-71
2022/01/29 07:20:15;;;;;;;20.92;12.00;;;8.80;99.90;;;;;;4986437;28;149790;-71
2022/01/29 07:22:41;;;;;;;26.13;12.18;;;8.80;99.90;;;;;;5006196;28;20037;-70
2022/01/29 07:25:07;;;;;;;23.25;10.98;;;8.90;99.90;;;;;;5019612;28;20056;-72
2022/01/29 07:27:34;;;;;;;20.23;10.93;;;8.80;99.90;;;;;;5035157;28;20049;-70
2022/01/29 07:30:00;;;;;;;25.17;10.75;;;8.80;99.90;;;;;;4990953;28;127926;-71
2022/01/29 07:32:26;;;;;;;24.58;11.95;;;8.80;99.90;;;;;;5032411;28;20061;-71
2022/01/29 07:34:52;;;;;;;22.25;12.52;;;8.80;99.90;;;;;;5011475;28;183150;-71
2022/01/29 07:37:18;;;;;;;23.50;11.95;;;8.80;99.90;;;;;;5036759;28;20058;-72
2022/01/29 07:39:44;;;;;;;29.90;12.15;;;8.70;99.90;;;;;;4983749;28;124395;-72
2022/01/29 07:42:10;;;;;;;21.35;11.10;;;8.70;99.90;;;;;;5036001;28;20095;-71
2022/01/29 07:44:36;;;;;;;27.20;12.85;;;8.70;99.90;;;;;;4994814;28;225399;-72
2022/01/29 07:47:03;;;;;;;25.25;12.15;;;8.70;99.90;;;;;;5032802;28;20053;-71
2022/01/29 07:49:29;;;;;;;28.63;12.75;;;8.70;99.90;;;;;;4994252;28;106275;-71
2022/01/29 07:51:55;;;;;;;27.20;13.77;;;8.70;99.90;;;;;;5030312;28;20053;-71
2022/01/29 07:54:21;;;;;;;27.10;12.60;;;8.70;99.90;;;;;;4990765;28;74186;-70
2022/01/29 07:56:47;;;;;;;30.35;12.57;;;8.70;99.90;;;;;;5031746;28;20486;-71
2022/01/29 07:59:13;;;;;;;24.73;12.25;;;8.60;99.90;;;;;;4998956;28;56782;-71
2022/01/29 08:01:39;;;;;;;24.27;12.93;;;8.70;99.90;;;;;;5039873;28;20355;-71
2022/01/29 08:04:05;;;;;;;24.98;13.13;;;8.60;99.90;;;;;;4992087;28;125988;-71
2022/01/29 08:06:32;;;;;;;25.60;13.65;;;8.60;99.90;;;;;;5042322;28;20056;-71
2022/01/29 08:08:58;;;;;;;31.38;13.75;;;8.60;99.90;;;;;;4995196;28;20046;-71
2022/01/29 08:11:24;;;;;;;24.08;13.32;;;8.60;99.90;;;;;;5017358;28;20057;-71
2022/01/29 08:13:51;;;;;;;28.77;13.07;;;8.70;99.90;;;;;;4975920;28;20045;-71
2022/01/29 08:16:17;;;;;;;26.92;12.43;;;8.60;99.90;;;;;;5040865;28;20080;-71
2022/01/29 08:18:45;;;;;;;26.15;12.18;;;8.70;99.90;;;;;;4981458;28;224520;-71
2022/01/29 08:21:13;;;;;;;26.33;12.20;;;8.70;99.90;;;;;;5029403;28;20065;-71
2022/01/29 08:23:40;;;;;;;28.08;12.57;;;8.80;99.90;;;;;;4993003;28;183549;-70
2022/01/29 08:26:06;;;;;;;21.17;11.13;;;8.80;99.90;;;;;;5035129;28;20045;-71
2022/01/29 08:28:32;;;;;;;24.67;11.73;;;8.80;99.90;;;;;;5007202;28;20430;-71
2022/01/29 08:30:59;;;;;;;23.20;11.07;;;8.80;99.90;;;;;;5017602;28;74622;-71
2022/01/29 08:33:25;;;;;;;26.30;11.45;;;8.80;99.90;;;;;;5004535;28;20044;-72
2022/01/29 08:35:52;;;;;;;24.20;11.52;;;8.80;99.90;;;;;;5022710;28;54261;-71
2022/01/29 08:38:19;;;;;;;21.35;10.52;;;8.80;99.90;;;;;;5002725;28;20484;-71
2022/01/29 08:40:45;;;;;;;24.67;9.93;;;8.90;99.90;;;;;;5027343;28;142546;-71
2022/01/29 08:43:11;;;;;;;20.75;10.10;;;8.90;99.90;;;;;;5003358;28;20485;-72
2022/01/29 08:45:37;;;;;;;21.45;9.88;;;8.90;99.90;;;;;;5014801;28;212320;-72
2022/01/29 08:48:04;;;;;;;24.63;10.18;;;9.00;99.90;;;;;;5008389;28;20601;-72
2022/01/29 08:50:30;;;;;;;22.13;8.82;;;9.00;99.90;;;;;;5029810;28;102450;-72
2022/01/29 08:52:56;;;;;;;22.60;8.88;;;9.00;99.90;;;;;;5018220;28;20408;-71
2022/01/29 08:55:22;;;;;;;22.35;8.63;;;9.00;99.90;;;;;;5044582;28;41150;-71
2022/01/29 08:57:49;;;;;;;20.85;8.23;;;9.10;99.90;;;;;;5014081;28;20052;-71
2022/01/29 09:00:16;;;;;;;16.08;6.70;;;9.10;99.90;;;;;;5044321;28;225649;-71
2022/01/29 09:02:42;;;;;;;19.98;7.68;;;9.10;99.90;;;;;;5015666;28;20048;-71
2022/01/29 09:05:11;;;;;;;18.25;6.85;;;9.20;99.90;;;;;;5017950;28;136440;-71
2022/01/29 09:07:37;;;;;;;17.75;6.93;;;9.20;99.90;;;;;;5029178;28;20064;-71
2022/01/29 09:10:04;;;;;;;20.65;6.82;;;9.30;99.90;;;;;;5006968;28;119825;-71
2022/01/29 09:12:30;;;;;;;20.25;6.78;;;9.30;99.90;;;;;;5045170;28;20033;-71
2022/01/29 09:14:56;;;;;;;19.88;6.93;;;9.30;99.90;;;;;;5006838;28;241482;-71
2022/01/29 09:17:22;;;;;;;16.98;6.18;;;9.40;99.90;;;;;;5044817;28;20057;-72
2022/01/29 09:19:49;;;;;;;15.57;6.38;;;9.40;99.90;;;;;;5000827;28;52389;-71
2022/01/29 09:22:15;;;;;;;17.13;5.93;;;9.40;99.90;;;;;;5046900;28;20053;-71
2022/01/29 09:24:41;;;;;;;16.50;5.68;;;9.40;99.90;;;;;;4986829;28;247092;-71
2022/01/29 09:27:07;;;;;;;16.20;6.25;;;9.50;99.90;;;;;;5045422;28;20048;-72
2022/01/29 09:29:33;;;;;;;20.25;6.28;;;9.50;99.90;;;;;;4998478;28;120887;-73
2022/01/29 09:31:59;;;;;;;16.17;5.30;;;9.50;99.90;;;;;;5047499;28;20060;-72
2022/01/29 09:34:26;;;;;;;14.27;5.30;;;9.50;99.90;;;;;;5011220;28;182467;-72
2022/01/29 09:36:52;;;;;;;17.75;5.30;;;9.60;99.90;;;;;;5046238;28;20049;-72
2022/01/29 09:39:18;;;;;;;15.48;4.85;;;9.60;99.90;;;;;;5003564;28;54937;-71
2022/01/29 09:41:45;;;;;;;15.32;5.88;;;9.60;99.90;;;;;;5046596;28;20064;-72
2022/01/29 09:44:13;;;;;;;15.52;4.80;;;9.60;99.90;;;;;;5015272;28;124178;-71
2022/01/29 09:46:40;;;;;;;18.75;5.72;;;9.60;99.90;;;;;;5052294;23;20058;-71
2022/01/29 09:49:07;;;;;;;18.77;5.82;;;9.60;99.90;;;;;;4958790;28;241118;-70
2022/01/29 09:51:36;;;;;;;16.55;5.18;;;9.60;99.90;;;;;;4989573;28;20065;-71
2022/01/29 09:54:02;;;;;;;17.05;5.38;;;9.70;99.90;;;;;;4965722;28;213296;-70
2022/01/29 09:56:30;;;;;;;14.60;4.95;;;9.70;99.90;;;;;;4988106;28;20129;-71
2022/01/29 09:58:56;;;;;;;17.15;4.93;;;9.70;99.90;;;;;;4953646;28;159944;-70
2022/01/29 10:01:23;;;;;;;16.60;4.68;;;9.70;99.90;;;;;;4982434;28;20054;-71
2022/01/29 10:04:02;;;;;;;15.95;5.07;;;9.70;99.90;;;;;;4940953;28;237054;-71
2022/01/29 10:06:29;;;;;;;17.88;4.80;;;9.80;99.90;;;;;;4982467;28;20061;-71
2022/01/29 10:08:55;;;;;;;15.52;4.45;;;9.80;99.90;;;;;;4952740;28;150248;-72
2022/01/29 10:11:26;;;;;;;15.45;4.57;;;9.80;99.90;;;;;;4974766;28;20050;-71
2022/01/29 10:13:59;;;;;;;14.70;4.25;;;9.80;99.90;;;;;;4953005;28;30410;-71
2022/01/29 10:16:28;;;;;;;16.75;5.18;;;9.80;99.90;;;;;;5003337;28;20407;-71
2022/01/29 10:18:57;;;;;;;16.85;4.35;;;9.80;99.90;;;;;;4949257;28;214277;-70
2022/01/29 10:21:26;;;;;;;14.50;4.15;;;9.90;99.90;;;;;;5008664;28;20534;-70
2022/01/29 10:24:07;;;;;;;16.23;4.53;;;9.80;99.90;;;;;;4950353;28;222654;-71
2022/01/29 10:26:39;;;;;;;16.98;4.80;;;9.80;99.90;;;;;;5001449;28;20062;-71
2022/01/29 10:29:14;;;;;;;17.45;4.43;;;9.90;99.90;;;;;;4951446;28;24105;-71
2022/01/29 10:31:43;;;;;;;14.50;3.78;;;9.90;99.90;;;;;;4983568;28;20152;-71
2022/01/29 10:34:18;;;;;;;18.40;4.25;;;9.90;99.90;;;;;;4964120;28;104950;-71
2022/01/29 10:36:45;;;;;;;15.90;3.50;;;9.90;99.90;;;;;;5002037;28;20049;-72
2022/01/29 10:39:12;;;;;;;16.98;3.80;;;9.90;99.90;;;;;;4952579;28;154802;-72
2022/01/29 10:41:38;;;;;;;16.83;4.05;;;9.90;99.90;;;;;;4994468;28;20059;-71
2022/01/29 10:44:16;;;;;;;18.67;3.85;;;9.90;99.90;;;;;;4965870;28;76394;-71
2022/01/29 10:46:45;;;;;;;15.95;3.42;;;10.00;99.90;;;;;;4995350;28;20473;-71
2022/01/29 10:49:26;;;;;;;14.93;2.90;;;9.90;99.90;;;;;;4960432;28;95283;-71
2022/01/29 10:51:56;;;;;;;17.20;4.00;;;10.00;99.90;;;;;;5002347;28;20061;-71
2022/01/29 10:54:22;;;;;;;18.87;4.10;;;10.00;99.90;;;;;;4947353;28;229318;-71
2022/01/29 10:57:04;;;;;;;14.15;3.33;;;10.00;99.90;;;;;;5004056;28;20065;-71
2022/01/29 10:59:32;;;;;;;17.08;3.80;;;10.00;99.90;;;;;;4963615;28;89238;-71
2022/01/29 11:02:07;;;;;;;13.57;3.30;;;10.00;99.90;;;;;;5005967;28;20057;-72
2022/01/29 11:04:36;;;;;;;15.40;3.53;;;10.10;99.90;;;;;;4932916;28;152118;-71
2022/01/29 11:07:06;;;;;;;13.48;3.17;;;10.00;99.90;;;;;;4989220;28;20061;-71
2022/01/29 11:09:33;;;;;;;18.75;3.50;;;10.00;99.90;;;;;;4947458;28;145924;-72
2022/01/29 11:12:03;;;;;;;15.68;3.50;;;10.00;99.90;;;;;;5006710;28;20050;-71
2022/01/29 11:14:31;;;;;;;18.75;3.33;;;10.00;99.90;;;;;;4931026;28;218850;-72
2022/01/29 11:16:59;;;;;;;16.40;3.20;;;10.00;99.90;;;;;;4982567;28;20053;-72
2022/01/29 11:19:25;;;;;;;15.15;3.65;;;10.00;99.90;;;;;;4947601;28;43870;-72
2022/01/29 11:21:54;;;;;;;12.07;2.70;;;10.10;99.90;;;;;;4988167;28;20076;-72
2022/01/29 11:24:23;;;;;;;14.20;3.13;;;10.10;99.90;;;;;;4943152;28;222650;-72
2022/01/29 11:26:50;;;;;;;14.07;2.80;;;10.10;99.90;;;;;;4991514;28;20050;-71
2022/01/29 11:29:30;;;;;;;15.27;2.85;;;10.10;99.90;;;;;;4959253;28;205118;-71
2022/01/29 11:32:21;;;;;;;13.32;2.90;;;10.20;99.90;;;;;;5003024;28;20440;-72
2022/01/29 11:35:06;;;;;;;14.27;2.78;;;10.20;99.90;;;;;;4952622;28;90597;-71
2022/01/29 11:37:46;;;;;;;12.32;2.42;;;10.30;99.90;;;;;;5002224;28;20058;-72
2022/01/29 11:40:12;;;;;;;14.85;2.70;;;10.30;99.90;;;;;;4931870;28;37361;-72
2022/01/29 11:42:50;;;;;;;10.77;2.80;;;10.30;99.90;;;;;;4982863;28;20061;-71
2022/01/29 11:46:04;;;;;;;16.33;2.60;;;10.30;99.90;;;;;;4977933;28;31088;-71
2022/01/29 11:48:40;;;;;;;15.82;2.60;;;10.40;99.90;;;;;;4897264;28;20079;-72
2022/01/29 11:51:08;;;;;;;13.32;2.47;;;10.40;99.90;;;;;;4905420;28;20039;-72
2022/01/29 11:53:49;;;;;;;11.05;2.80;;;10.40;99.90;;;;;;4913925;28;20039;-72
2022/01/29 11:56:30;;;;;;;15.10;2.95;;;10.50;99.90;;;;;;4913813;28;20066;-71
2022/01/29 11:59:30;;;;;;;11.88;2.38;;;10.50;99.90;;;;;;4907675;28;97283;-72
2022/01/29 12:02:01;;;;;;;14.50;2.38;;;10.60;99.90;;;;;;4945173;28;20256;-72
2022/01/29 12:04:48;;;;;;;12.63;2.03;;;10.70;99.90;;;;;;4895255;28;82349;-73
2022/01/29 12:07:21;;;;;;;12.43;2.25;;;10.70;99.90;;;;;;4957714;28;20059;-72
2022/01/29 12:10:02;;;;;;;16.08;2.63;;;10.70;99.90;;;;;;4901360;28;220144;-72
2022/01/29 12:12:32;;;;;;;12.23;1.95;;;10.70;99.90;;;;;;4961878;28;20055;-72
2022/01/29 12:15:18;;;;;;;13.88;2.28;;;10.80;99.90;;;;;;4898903;28;185955;-72
2022/01/29 12:18:01;;;;;;;13.38;2.10;;;10.80;99.90;;;;;;4929414;28;20047;-72
2022/01/29 12:20:28;;;;;;;12.80;1.95;;;10.80;99.90;;;;;;4918909;28;20051;-73
2022/01/29 12:23:02;;;;;;;13.55;2.15;;;10.80;99.90;;;;;;4912402;28;20062;-73
2022/01/29 12:25:29;;;;;;;12.63;2.10;;;10.80;99.90;;;;;;4958828;28;159818;-73
2022/01/29 12:28:01;;;;;;;14.18;2.10;;;10.80;99.90;;;;;;4971181;28;20049;-71
2022/01/29 12:30:37;;;;;;;12.82;1.95;;;10.90;99.90;;;;;;4939479;28;220819;-72
2022/01/29 12:33:14;;;;;;;12.73;2.17;;;11.10;99.90;;;;;;4975096;28;20045;-72
2022/01/29 12:35:45;;;;;;;13.05;2.25;;;11.10;99.90;;;;;;4990219;28;189439;-72
2022/01/29 12:38:14;;;;;;;13.82;2.30;;;11.00;99.90;;;;;;4977620;28;20053;-73
2022/01/29 12:40:50;;;;;;;12.57;2.25;;;11.00;99.90;;;;;;4974425;28;86357;-72
2022/01/29 12:43:40;;;;;;;16.60;2.38;;;11.00;99.90;;;;;;4981199;28;20521;-73
2022/01/29 12:46:06;;;;;;;13.30;2.00;;;11.10;99.90;;;;;;4991236;28;20518;-72
2022/01/29 12:48:33;;;;;;;13.35;2.15;;;11.00;99.90;;;;;;4960320;28;20056;-73
2022/01/29 12:51:09;;;;;;;14.73;2.30;;;11.00;99.90;;;;;;4974981;28;53103;-72
2022/01/29 12:53:36;;;;;;;14.63;2.25;;;11.00;99.90;;;;;;4969449;28;20049;-73
2022/01/29 12:56:10;;;;;;;14.82;2.40;;;11.00;99.90;;;;;;4980548;28;20375;-73